首页
METAR-TAF:

METAR-TAF

机场 :

石油平台

K14-fa-1c, 荷兰

纬度: 53-16-10N, 经度: 3-37-40E, 海拔: 28米

当前天气观测

该预报发布于37分钟前的04:55 UTC
风速36节,风向
温度 10°C
湿度 71%
气压 1015 hPa
能见度10公里或以上
少量云层高于2300英尺
多云层高于2900英尺
多云层高于3200英尺

METAR: EHKV 010455Z AUTO 01036KT 9999 FEW023 BKN029 BKN032 10/05 Q1015

时间: 06:32 (05:32 UTC)


TAF: 丢失

超过4000个机场的气象观测和天气预报(METAR&TAF报告)。

可查询的气象台以黄色和红色小点在地图上表示。

将鼠标移到小点上方,可查看气象台名称。

然后点击查看天气观测和预报。

如需切换地图:点击带黑十字的绿色按钮放大地图;点击带横线的绿色按钮缩小地图;或者点击绿色箭头查看邻近地区的地图。


METAR-TAF: